createdAt,value
2023-03-22T00:02:48.754Z,26.55
2023-03-22T00:07:50.289Z,27.92
2023-03-22T00:12:50.530Z,30.00
2023-03-22T00:17:50.537Z,32.03
2023-03-22T00:22:49.361Z,30.77
2023-03-22T00:27:48.197Z,28.30
2023-03-22T00:32:48.593Z,32.47
2023-03-22T00:37:47.558Z,32.40
2023-03-22T00:42:46.345Z,35.33
2023-03-22T00:47:45.163Z,30.30
2023-03-22T00:52:45.512Z,31.80
2023-03-22T00:57:44.548Z,28.50
2023-03-22T01:02:44.055Z,28.02
2023-03-22T01:07:50.943Z,34.35
2023-03-22T01:12:49.793Z,37.72
2023-03-22T01:17:49.193Z,32.40
2023-03-22T01:22:49.512Z,32.42
2023-03-22T01:27:48.322Z,31.45
2023-03-22T01:32:47.078Z,30.02
2023-03-22T01:37:46.761Z,32.15
2023-03-22T01:42:47.625Z,34.60
2023-03-22T01:47:53.815Z,33.08
2023-03-22T01:52:54.432Z,28.17
2023-03-22T01:57:58.811Z,27.85
2023-03-22T02:03:13.881Z,34.05
2023-03-22T02:08:19.421Z,28.35
2023-03-22T02:13:42.435Z,37.45
2023-03-22T02:19:12.413Z,28.10
2023-03-22T02:24:45.394Z,30.20
2023-03-22T02:29:50.167Z,29.23
2023-03-22T02:35:22.514Z,30.98
2023-03-22T02:40:31.313Z,24.35
2023-03-22T02:45:35.625Z,25.73
2023-03-22T02:50:42.104Z,28.27
2023-03-22T02:55:47.376Z,28.20
2023-03-22T03:00:49.522Z,29.02
2023-03-22T03:05:53.985Z,28.87
2023-03-22T03:10:55.040Z,29.42
2023-03-22T03:15:57.440Z,31.65
2023-03-22T03:21:04.017Z,26.50
2023-03-22T03:26:10.614Z,30.10
2023-03-22T03:31:21.479Z,30.23
2023-03-22T03:36:23.638Z,30.13
2023-03-22T03:41:29.059Z,30.97
2023-03-22T03:46:29.242Z,31.98
2023-03-22T03:51:29.116Z,36.03
2023-03-22T03:56:29.313Z,34.38
2023-03-22T04:01:29.300Z,31.92
2023-03-22T04:06:41.020Z,28.85
2023-03-22T04:11:49.730Z,34.35
2023-03-22T04:16:49.371Z,29.98
2023-03-22T04:21:53.330Z,31.17
2023-03-22T04:26:53.869Z,28.73
2023-03-22T04:31:57.747Z,29.23
2023-03-22T04:37:08.128Z,30.33
2023-03-22T04:42:19.508Z,25.83
2023-03-22T04:47:20.420Z,26.55
2023-03-22T04:52:19.434Z,29.60
2023-03-22T04:57:26.050Z,33.17
2023-03-22T05:02:25.098Z,34.00
2023-03-22T05:07:24.990Z,33.53
2023-03-22T05:17:32.041Z,29.73
2023-03-22T05:22:34.850Z,37.28
2023-03-22T05:27:39.124Z,31.48
2023-03-22T05:33:02.363Z,30.17
2023-03-22T05:38:06.170Z,29.20
2023-03-22T05:43:09.643Z,30.02
2023-03-22T05:48:12.995Z,29.60
2023-03-22T05:53:12.740Z,30.10
2023-03-22T05:58:39.764Z,33.05
2023-03-22T06:03:41.102Z,35.05
2023-03-22T06:08:52.526Z,31.83
2023-03-22T06:13:53.094Z,26.77
2023-03-22T06:18:55.194Z,30.13
2023-03-22T06:23:54.084Z,26.85
2023-03-22T06:28:55.344Z,25.95
2023-03-22T06:33:55.894Z,26.15
2023-03-22T06:39:13.456Z,27.08
2023-03-22T06:44:17.354Z,24.07
2023-03-22T06:49:22.820Z,21.63
2023-03-22T06:54:24.389Z,19.30
2023-03-22T06:59:24.725Z,24.77
2023-03-22T07:04:24.296Z,25.67
2023-03-22T07:09:24.184Z,28.80
2023-03-22T07:14:27.489Z,26.10
2023-03-22T07:19:34.589Z,34.58
2023-03-22T07:24:47.288Z,27.25
2023-03-22T07:29:55.369Z,23.33
2023-03-22T07:34:54.786Z,24.95
2023-03-22T07:39:53.613Z,27.83
2023-03-22T07:44:54.198Z,32.60
2023-03-22T07:50:14.130Z,37.83
2023-03-22T07:55:15.863Z,33.25
2023-03-22T08:00:17.402Z,27.10
2023-03-22T08:05:25.893Z,26.30
2023-03-22T08:10:32.828Z,25.45
2023-03-22T08:15:34.154Z,24.95
2023-03-22T08:20:34.192Z,23.77
2023-03-22T08:25:38.331Z,23.25
2023-03-22T08:30:42.509Z,20.52
2023-03-22T08:35:42.576Z,23.55
2023-03-22T08:40:41.574Z,24.20
2023-03-22T08:45:40.607Z,20.70
2023-03-22T08:50:48.529Z,17.70
2023-03-22T08:55:58.164Z,18.65
2023-03-22T09:01:13.655Z,15.93
2023-03-22T09:06:32.890Z,19.10
2023-03-22T09:11:32.623Z,18.10
2023-03-22T09:16:31.737Z,17.05
2023-03-22T09:21:34.061Z,21.88
2023-03-22T09:26:41.608Z,16.60
2023-03-22T09:31:40.943Z,18.02
2023-03-22T09:36:49.334Z,17.77
2023-03-22T09:41:55.137Z,15.30
2023-03-22T09:46:57.382Z,16.42
2023-03-22T09:51:58.147Z,21.83
2023-03-22T09:57:02.134Z,12.90
2023-03-22T10:02:04.837Z,12.45
2023-03-22T10:07:12.898Z,10.18
2023-03-22T10:12:21.581Z,13.02
2023-03-22T10:17:27.172Z,10.98
2023-03-22T10:22:32.495Z,11.23
2023-03-22T10:27:32.761Z,12.25
2023-03-22T10:32:51.052Z,12.73
2023-03-22T10:37:59.444Z,14.88
2023-03-22T10:43:01.875Z,9.93
2023-03-22T10:48:03.965Z,11.95
2023-03-22T10:53:07.063Z,10.67
2023-03-22T11:03:28.663Z,11.35
2023-03-22T11:08:28.926Z,11.82
2023-03-22T11:13:27.900Z,12.45
2023-03-22T11:18:32.334Z,11.60
2023-03-22T11:23:35.007Z,13.23
2023-03-22T11:28:37.483Z,13.13
2023-03-22T11:33:37.770Z,11.52
2023-03-22T11:38:40.252Z,13.70
2023-03-22T11:43:42.451Z,13.05
2023-03-22T11:48:43.804Z,14.23
2023-03-22T11:53:46.084Z,14.27
2023-03-22T11:59:00.825Z,15.20
2023-03-22T12:04:04.461Z,16.27
2023-03-22T12:09:11.637Z,15.10
2023-03-22T12:14:19.669Z,16.90
2023-03-22T12:19:28.470Z,12.68
2023-03-22T12:24:31.610Z,16.73
2023-03-22T12:29:30.805Z,13.40
2023-03-22T12:34:38.298Z,14.27
2023-03-22T12:39:42.302Z,13.68
2023-03-22T12:44:55.512Z,14.77
2023-03-22T12:50:06.800Z,16.13
2023-03-22T12:55:10.814Z,16.23
2023-03-22T13:05:17.520Z,17.27
2023-03-22T13:10:59.962Z,18.98
2023-03-22T13:16:02.672Z,17.57
2023-03-22T13:21:14.235Z,14.82
2023-03-22T13:26:17.510Z,17.27
2023-03-22T13:31:32.881Z,12.68
2023-03-22T13:36:33.285Z,13.82
2023-03-22T13:41:36.137Z,14.13
2023-03-22T13:51:49.990Z,11.43
2023-03-22T13:56:56.385Z,12.65
2023-03-22T14:02:01.173Z,17.58
2023-03-22T14:07:01.338Z,13.82
2023-03-22T14:12:09.671Z,16.88
2023-03-22T14:17:18.406Z,11.20
